Monroe County (BMG)

 

Airport Diagram
Current Weather/Forecast (VFR Conditions)
METAR KBMG 071253Z 23004KT 10SM CLR 09/04 A3007 RMK AO2 SLP181 T00890039
TAF KBMG 071125Z 0712/0812 VRB03KT P6SM FEW180 FM071800 27010G19KT P6SM SCT090 FM072000 27011G20KT P6SM VCSH BKN090 FM072200 27009KT P6SM SCT100 FM080100 32005KT P6SM FEW250 AMD LTD TO CLD VIS AND WIND TIL 071300

Airport Information

All Charts
General
Chart Name View
AIRPORT DIAGRAM
TAKEOFF MINIMUMS
ALTERNATE MINIMUMS
LAHSO

Approaches
Chart Name Download
ILS OR LOC/DME RWY 35
RNAV (GPS) RWY 06
RNAV (GPS) RWY 17
RNAV (GPS) RWY 24
RNAV (GPS) RWY 35
VOR/DME RWY 06
VOR RWY 17


Airport Statistics
Departures Arrivals Local
All Collected Stats since June 2016: 77 111 8
2021 Stats: 4 11 0
May Stats: 0 0 0

Inbound Traffic (Arrivals) - 0

No inbound traffic.


Outbound Traffic (Departures) - 0

No outbound traffic.


Local Traffic (Pattern) - 0

No local traffic.